sensor_id;sensor_type;location;lat;lon;timestamp;pressure;altitude;pressure_sealevel;temperature;humidity
42847;BME280;28495;49.916;14.536;2023-02-23T00:02:23;96619.00;;;7.44;67.33
42847;BME280;28495;49.916;14.536;2023-02-23T00:07:44;96615.66;;;7.32;66.83
42847;BME280;28495;49.916;14.536;2023-02-23T00:13:05;96610.84;;;7.16;66.69
42847;BME280;28495;49.916;14.536;2023-02-23T00:18:26;96611.94;;;7.14;66.66
42847;BME280;28495;49.916;14.536;2023-02-23T00:24:00;96602.88;;;6.97;66.64
42847;BME280;28495;49.916;14.536;2023-02-23T00:29:23;96603.16;;;6.82;66.71
42847;BME280;28495;49.916;14.536;2023-02-23T00:34:47;96604.69;;;6.85;66.93
42847;BME280;28495;49.916;14.536;2023-02-23T00:40:11;96597.22;;;7.03;67.43
42847;BME280;28495;49.916;14.536;2023-02-23T00:45:34;96597.91;;;7.05;67.24
42847;BME280;28495;49.916;14.536;2023-02-23T00:51:01;96599.56;;;7.06;67.11
42847;BME280;28495;49.916;14.536;2023-02-23T00:56:23;96603.47;;;7.00;67.08
42847;BME280;28495;49.916;14.536;2023-02-23T01:01:44;96600.53;;;7.05;67.00
42847;BME280;28495;49.916;14.536;2023-02-23T01:07:05;96599.69;;;7.05;67.33
42847;BME280;28495;49.916;14.536;2023-02-23T01:12:26;96604.44;;;6.99;66.95
42847;BME280;28495;49.916;14.536;2023-02-23T01:17:47;96601.50;;;6.93;67.36
42847;BME280;28495;49.916;14.536;2023-02-23T01:23:12;96598.63;;;6.96;67.31
42847;BME280;28495;49.916;14.536;2023-02-23T01:28:34;96595.47;;;6.92;67.28
42847;BME280;28495;49.916;14.536;2023-02-23T01:34:00;96590.84;;;6.96;67.34
42847;BME280;28495;49.916;14.536;2023-02-23T01:39:23;96587.69;;;6.92;67.42
42847;BME280;28495;49.916;14.536;2023-02-23T01:50:05;96579.03;;;6.70;67.23
42847;BME280;28495;49.916;14.536;2023-02-23T01:55:26;96576.56;;;6.69;67.28
42847;BME280;28495;49.916;14.536;2023-02-23T02:00:58;96580.78;;;6.70;67.03
42847;BME280;28495;49.916;14.536;2023-02-23T02:06:24;96566.66;;;6.74;67.31
42847;BME280;28495;49.916;14.536;2023-02-23T02:11:49;96561.06;;;6.90;67.53
42847;BME280;28495;49.916;14.536;2023-02-23T02:41:24;96543.19;;;6.76;67.36
42847;BME280;28495;49.916;14.536;2023-02-23T02:46:21;96541.31;;;6.78;67.43
42847;BME280;28495;49.916;14.536;2023-02-23T02:51:57;96548.47;;;6.85;67.84
42847;BME280;28495;49.916;14.536;2023-02-23T02:57:23;96547.09;;;6.70;67.09
42847;BME280;28495;49.916;14.536;2023-02-23T03:02:45;96555.97;;;6.56;67.61
42847;BME280;28495;49.916;14.536;2023-02-23T03:08:44;96549.03;;;6.56;68.07
42847;BME280;28495;49.916;14.536;2023-02-23T03:20:44;96553.47;;;6.77;67.92
42847;BME280;28495;49.916;14.536;2023-02-23T03:32:34;96553.91;;;6.82;68.07
42847;BME280;28495;49.916;14.536;2023-02-23T03:43:59;96562.16;;;6.88;67.70
42847;BME280;28495;49.916;14.536;2023-02-23T03:49:41;96566.97;;;6.92;67.88
42847;BME280;28495;49.916;14.536;2023-02-23T03:55:26;96562.84;;;6.90;67.61
42847;BME280;28495;49.916;14.536;2023-02-23T04:01:08;96559.34;;;6.79;67.40
42847;BME280;28495;49.916;14.536;2023-02-23T04:06:50;96557.22;;;6.73;67.66
42847;BME280;28495;49.916;14.536;2023-02-23T04:18:12;96568.53;;;6.72;67.77
42847;BME280;28495;49.916;14.536;2023-02-23T04:23:34;96565.22;;;6.81;67.73
42847;BME280;28495;49.916;14.536;2023-02-23T04:28:57;96565.94;;;6.72;67.44
42847;BME280;28495;49.916;14.536;2023-02-23T04:34:18;96571.72;;;6.76;67.58
42847;BME280;28495;49.916;14.536;2023-02-23T04:39:39;96571.09;;;6.83;67.76
42847;BME280;28495;49.916;14.536;2023-02-23T04:45:00;96567.81;;;6.81;67.65
42847;BME280;28495;49.916;14.536;2023-02-23T04:50:21;96575.84;;;6.78;67.49
42847;BME280;28495;49.916;14.536;2023-02-23T04:55:42;96564.16;;;6.84;67.32
42847;BME280;28495;49.916;14.536;2023-02-23T05:01:04;96571.25;;;6.70;67.16
42847;BME280;28495;49.916;14.536;2023-02-23T05:06:26;96569.25;;;6.74;67.53
42847;BME280;28495;49.916;14.536;2023-02-23T05:11:47;96574.19;;;6.66;67.42
42847;BME280;28495;49.916;14.536;2023-02-23T05:17:07;96573.16;;;6.68;67.32
42847;BME280;28495;49.916;14.536;2023-02-23T05:22:28;96572.81;;;6.62;66.84
42847;BME280;28495;49.916;14.536;2023-02-23T05:27:49;96578.22;;;6.59;67.15
42847;BME280;28495;49.916;14.536;2023-02-23T05:33:10;96571.63;;;6.54;67.04
42847;BME280;28495;49.916;14.536;2023-02-23T05:38:35;96583.88;;;6.52;66.70
42847;BME280;28495;49.916;14.536;2023-02-23T05:43:56;96582.38;;;6.38;66.54
42847;BME280;28495;49.916;14.536;2023-02-23T05:49:16;96589.19;;;6.28;66.92
42847;BME280;28495;49.916;14.536;2023-02-23T05:54:37;96591.53;;;6.31;67.04
42847;BME280;28495;49.916;14.536;2023-02-23T05:59:58;96586.47;;;6.41;67.29
42847;BME280;28495;49.916;14.536;2023-02-23T06:05:18;96578.22;;;6.36;66.51
42847;BME280;28495;49.916;14.536;2023-02-23T06:10:39;96587.06;;;6.22;66.72
42847;BME280;28495;49.916;14.536;2023-02-23T06:16:00;96591.69;;;6.18;67.06
42847;BME280;28495;49.916;14.536;2023-02-23T06:21:21;96583.91;;;6.30;67.49
42847;BME280;28495;49.916;14.536;2023-02-23T06:26:42;96590.38;;;6.24;67.14
42847;BME280;28495;49.916;14.536;2023-02-23T06:32:04;96590.53;;;6.89;68.88
42847;BME280;28495;49.916;14.536;2023-02-23T06:37:26;96593.38;;;6.86;67.67
42847;BME280;28495;49.916;14.536;2023-02-23T06:42:47;96596.91;;;6.74;67.39
42847;BME280;28495;49.916;14.536;2023-02-23T06:48:08;96604.16;;;6.47;67.05
42847;BME280;28495;49.916;14.536;2023-02-23T06:53:29;96611.56;;;6.29;67.36
42847;BME280;28495;49.916;14.536;2023-02-23T06:58:50;96616.84;;;6.16;67.24
42847;BME280;28495;49.916;14.536;2023-02-23T07:04:11;96614.94;;;6.07;67.50
42847;BME280;28495;49.916;14.536;2023-02-23T07:09:35;96615.06;;;6.05;67.40
42847;BME280;28495;49.916;14.536;2023-02-23T07:14:56;96614.38;;;6.15;68.01
42847;BME280;28495;49.916;14.536;2023-02-23T07:20:17;96617.44;;;6.08;67.62
42847;BME280;28495;49.916;14.536;2023-02-23T07:25:39;96616.16;;;6.25;68.45
42847;BME280;28495;49.916;14.536;2023-02-23T07:31:00;96610.63;;;6.42;68.44
42847;BME280;28495;49.916;14.536;2023-02-23T07:36:22;96612.88;;;6.46;68.17
42847;BME280;28495;49.916;14.536;2023-02-23T07:41:43;96616.16;;;6.37;68.08
42847;BME280;28495;49.916;14.536;2023-02-23T07:47:12;96615.34;;;6.36;68.29
42847;BME280;28495;49.916;14.536;2023-02-23T07:52:33;96610.50;;;6.43;68.10
42847;BME280;28495;49.916;14.536;2023-02-23T07:57:53;96612.28;;;6.43;68.18
42847;BME280;28495;49.916;14.536;2023-02-23T08:03:14;96615.81;;;6.53;68.37
42847;BME280;28495;49.916;14.536;2023-02-23T08:08:34;96612.03;;;6.68;68.49
42847;BME280;28495;49.916;14.536;2023-02-23T08:13:56;96620.00;;;6.88;68.85
42847;BME280;28495;49.916;14.536;2023-02-23T08:19:20;96615.09;;;7.17;68.82
42847;BME280;28495;49.916;14.536;2023-02-23T08:24:44;96606.28;;;7.41;69.18
42847;BME280;28495;49.916;14.536;2023-02-23T08:30:05;96599.78;;;7.47;68.34
42847;BME280;28495;49.916;14.536;2023-02-23T08:35:29;96602.00;;;7.52;68.61
42847;BME280;28495;49.916;14.536;2023-02-23T08:40:50;96592.25;;;7.65;68.42
42847;BME280;28495;49.916;14.536;2023-02-23T08:46:11;96599.72;;;7.80;68.71
42847;BME280;28495;49.916;14.536;2023-02-23T08:51:32;96606.38;;;7.93;68.47
42847;BME280;28495;49.916;14.536;2023-02-23T08:56:55;96593.44;;;8.03;68.31
42847;BME280;28495;49.916;14.536;2023-02-23T09:02:17;96599.06;;;8.08;68.11
42847;BME280;28495;49.916;14.536;2023-02-23T09:07:39;96600.56;;;8.11;68.07
42847;BME280;28495;49.916;14.536;2023-02-23T09:13:01;96601.03;;;8.16;68.01
42847;BME280;28495;49.916;14.536;2023-02-23T09:18:22;96603.03;;;8.34;68.12
42847;BME280;28495;49.916;14.536;2023-02-23T09:23:44;96605.38;;;8.37;68.25
42847;BME280;28495;49.916;14.536;2023-02-23T09:29:09;96608.72;;;8.49;68.20
42847;BME280;28495;49.916;14.536;2023-02-23T09:34:29;96605.31;;;8.48;67.58
42847;BME280;28495;49.916;14.536;2023-02-23T09:39:52;96611.56;;;8.46;67.80
42847;BME280;28495;49.916;14.536;2023-02-23T09:50:39;96603.69;;;8.57;67.75
42847;BME280;28495;49.916;14.536;2023-02-23T09:56:06;96600.69;;;8.62;67.37
42847;BME280;28495;49.916;14.536;2023-02-23T10:07:15;96602.50;;;8.81;67.85
42847;BME280;28495;49.916;14.536;2023-02-23T10:12:53;96606.28;;;8.98;67.45
42847;BME280;28495;49.916;14.536;2023-02-23T10:23:42;96595.06;;;9.17;67.21
42847;BME280;28495;49.916;14.536;2023-02-23T10:29:18;96598.91;;;9.33;67.39
42847;BME280;28495;49.916;14.536;2023-02-23T10:34:41;96587.66;;;9.42;66.98
42847;BME280;28495;49.916;14.536;2023-02-23T10:40:03;96583.56;;;9.39;66.84
42847;BME280;28495;49.916;14.536;2023-02-23T10:45:27;96583.16;;;9.44;66.90
42847;BME280;28495;49.916;14.536;2023-02-23T10:50:51;96579.31;;;9.48;67.03
42847;BME280;28495;49.916;14.536;2023-02-23T10:56:15;96576.03;;;9.56;66.84
42847;BME280;28495;49.916;14.536;2023-02-23T11:01:42;96574.34;;;9.74;67.11
42847;BME280;28495;49.916;14.536;2023-02-23T11:07:29;96571.00;;;9.92;66.92
42847;BME280;28495;49.916;14.536;2023-02-23T11:12:50;96560.06;;;9.79;66.64
42847;BME280;28495;49.916;14.536;2023-02-23T11:18:18;96549.91;;;9.85;66.36
42847;BME280;28495;49.916;14.536;2023-02-23T11:23:40;96549.22;;;9.93;66.84
42847;BME280;28495;49.916;14.536;2023-02-23T11:29:10;96552.91;;;10.00;66.49
42847;BME280;28495;49.916;14.536;2023-02-23T11:34:33;96553.84;;;10.09;66.82
42847;BME280;28495;49.916;14.536;2023-02-23T11:39:58;96540.22;;;10.15;66.39
42847;BME280;28495;49.916;14.536;2023-02-23T11:45:21;96528.41;;;10.21;66.47
42847;BME280;28495;49.916;14.536;2023-02-23T11:50:45;96528.28;;;10.22;66.35
42847;BME280;28495;49.916;14.536;2023-02-23T11:56:08;96513.94;;;10.36;66.36
42847;BME280;28495;49.916;14.536;2023-02-23T12:01:41;96509.97;;;10.42;66.23
42847;BME280;28495;49.916;14.536;2023-02-23T12:07:39;96513.09;;;10.46;66.26
42847;BME280;28495;49.916;14.536;2023-02-23T12:13:20;96499.41;;;10.62;66.08
42847;BME280;28495;49.916;14.536;2023-02-23T12:24:47;96501.09;;;10.81;66.20
42847;BME280;28495;49.916;14.536;2023-02-23T12:30:22;96499.00;;;11.03;65.71
42847;BME280;28495;49.916;14.536;2023-02-23T12:42:14;96493.72;;;10.94;65.72
42847;BME280;28495;49.916;14.536;2023-02-23T12:47:48;96489.31;;;10.95;65.54
42847;BME280;28495;49.916;14.536;2023-02-23T12:58:55;96485.56;;;10.97;65.63
42847;BME280;28495;49.916;14.536;2023-02-23T13:10:54;96472.31;;;11.09;65.22
42847;BME280;28495;49.916;14.536;2023-02-23T13:22:32;96467.34;;;11.24;65.32
42847;BME280;28495;49.916;14.536;2023-02-23T13:27:36;96462.81;;;11.26;65.32
42847;BME280;28495;49.916;14.536;2023-02-23T13:33:03;96453.25;;;11.35;65.04
42847;BME280;28495;49.916;14.536;2023-02-23T13:38:32;96448.19;;;11.33;65.09
42847;BME280;28495;49.916;14.536;2023-02-23T13:44:06;96456.66;;;11.35;65.42
42847;BME280;28495;49.916;14.536;2023-02-23T13:49:53;96446.84;;;11.29;65.05
42847;BME280;28495;49.916;14.536;2023-02-23T14:01:16;96451.09;;;11.12;65.25
42847;BME280;28495;49.916;14.536;2023-02-23T14:06:53;96450.59;;;11.08;64.93
42847;BME280;28495;49.916;14.536;2023-02-23T14:12:23;96447.97;;;11.08;65.06
42847;BME280;28495;49.916;14.536;2023-02-23T14:18:02;96451.22;;;11.02;65.04
42847;BME280;28495;49.916;14.536;2023-02-23T14:34:49;96453.81;;;11.02;65.21
42847;BME280;28495;49.916;14.536;2023-02-23T14:40:17;96447.78;;;11.02;65.25
42847;BME280;28495;49.916;14.536;2023-02-23T14:45:40;96457.66;;;11.34;68.27
42847;BME280;28495;49.916;14.536;2023-02-23T14:51:20;96447.47;;;12.10;67.27
42847;BME280;28495;49.916;14.536;2023-02-23T14:56:47;96439.19;;;12.31;65.98
42847;BME280;28495;49.916;14.536;2023-02-23T15:02:15;96445.03;;;12.25;65.27
42847;BME280;28495;49.916;14.536;2023-02-23T15:07:38;96445.25;;;11.63;64.29
42847;BME280;28495;49.916;14.536;2023-02-23T15:13:08;96446.63;;;11.22;64.59
42847;BME280;28495;49.916;14.536;2023-02-23T15:18:37;96434.59;;;11.03;64.91
42847;BME280;28495;49.916;14.536;2023-02-23T15:29:30;96442.19;;;10.78;65.08
42847;BME280;28495;49.916;14.536;2023-02-23T15:34:52;96437.72;;;10.71;65.43
42847;BME280;28495;49.916;14.536;2023-02-23T15:40:17;96444.19;;;10.66;65.40
42847;BME280;28495;49.916;14.536;2023-02-23T15:46:03;96443.31;;;10.58;65.69
42847;BME280;28495;49.916;14.536;2023-02-23T15:51:47;96435.78;;;10.55;65.70
42847;BME280;28495;49.916;14.536;2023-02-23T15:57:19;96435.50;;;10.58;65.58
42847;BME280;28495;49.916;14.536;2023-02-23T16:02:42;96435.69;;;10.46;65.46
42847;BME280;28495;49.916;14.536;2023-02-23T16:08:16;96426.28;;;10.35;65.59
42847;BME280;28495;49.916;14.536;2023-02-23T16:13:43;96432.75;;;10.31;65.47
42847;BME280;28495;49.916;14.536;2023-02-23T16:19:05;96428.03;;;10.45;65.87
42847;BME280;28495;49.916;14.536;2023-02-23T16:24:27;96418.63;;;10.52;66.07
42847;BME280;28495;49.916;14.536;2023-02-23T16:29:56;96421.34;;;10.42;65.56
42847;BME280;28495;49.916;14.536;2023-02-23T16:35:19;96421.47;;;10.41;66.04
42847;BME280;28495;49.916;14.536;2023-02-23T16:40:40;96418.31;;;10.37;65.98
42847;BME280;28495;49.916;14.536;2023-02-23T16:46:01;96427.03;;;10.28;65.60
42847;BME280;28495;49.916;14.536;2023-02-23T16:51:22;96426.25;;;10.17;66.01
42847;BME280;28495;49.916;14.536;2023-02-23T16:56:45;96432.59;;;10.15;65.85
42847;BME280;28495;49.916;14.536;2023-02-23T17:02:10;96441.81;;;10.09;66.02
42847;BME280;28495;49.916;14.536;2023-02-23T17:07:33;96443.94;;;9.96;66.01
42847;BME280;28495;49.916;14.536;2023-02-23T17:12:59;96449.66;;;9.99;66.43
42847;BME280;28495;49.916;14.536;2023-02-23T17:18:25;96445.69;;;9.95;65.65
42847;BME280;28495;49.916;14.536;2023-02-23T17:23:46;96447.00;;;9.81;66.09
42847;BME280;28495;49.916;14.536;2023-02-23T17:29:10;96448.69;;;9.72;66.48
42847;BME280;28495;49.916;14.536;2023-02-23T17:34:31;96449.31;;;9.84;66.77
42847;BME280;28495;49.916;14.536;2023-02-23T17:39:52;96447.13;;;9.80;66.40
42847;BME280;28495;49.916;14.536;2023-02-23T17:45:12;96446.75;;;9.74;66.25
42847;BME280;28495;49.916;14.536;2023-02-23T17:50:33;96442.25;;;9.67;66.19
42847;BME280;28495;49.916;14.536;2023-02-23T17:55:54;96439.09;;;9.63;66.66
42847;BME280;28495;49.916;14.536;2023-02-23T18:01:16;96431.31;;;9.53;66.40
42847;BME280;28495;49.916;14.536;2023-02-23T18:06:37;96434.22;;;9.50;66.44
42847;BME280;28495;49.916;14.536;2023-02-23T18:11:58;96433.13;;;9.53;66.77
42847;BME280;28495;49.916;14.536;2023-02-23T18:17:19;96425.16;;;9.54;66.76
42847;BME280;28495;49.916;14.536;2023-02-23T18:22:41;96427.94;;;9.43;66.32
42847;BME280;28495;49.916;14.536;2023-02-23T18:28:02;96423.44;;;9.35;66.51
42847;BME280;28495;49.916;14.536;2023-02-23T18:33:23;96420.03;;;9.35;66.95
42847;BME280;28495;49.916;14.536;2023-02-23T18:38:44;96429.16;;;9.39;66.94
42847;BME280;28495;49.916;14.536;2023-02-23T18:44:07;96424.28;;;9.36;67.01
42847;BME280;28495;49.916;14.536;2023-02-23T18:49:28;96432.72;;;9.48;67.38
42847;BME280;28495;49.916;14.536;2023-02-23T18:54:49;96426.69;;;9.47;67.09
42847;BME280;28495;49.916;14.536;2023-02-23T19:00:12;96425.91;;;9.37;66.86
42847;BME280;28495;49.916;14.536;2023-02-23T19:05:34;96430.56;;;9.23;66.96
42847;BME280;28495;49.916;14.536;2023-02-23T19:10:56;96434.28;;;9.11;67.07
42847;BME280;28495;49.916;14.536;2023-02-23T19:16:18;96430.06;;;9.00;67.02
42847;BME280;28495;49.916;14.536;2023-02-23T19:21:39;96434.34;;;8.81;66.83
42847;BME280;28495;49.916;14.536;2023-02-23T19:27:00;96431.75;;;8.81;67.31
42847;BME280;28495;49.916;14.536;2023-02-23T19:32:21;96420.22;;;8.64;67.35
42847;BME280;28495;49.916;14.536;2023-02-23T19:37:47;96414.06;;;8.65;67.79
42847;BME280;28495;49.916;14.536;2023-02-23T19:43:09;96417.50;;;8.56;67.38
42847;BME280;28495;49.916;14.536;2023-02-23T19:48:31;96413.81;;;8.59;67.61
42847;BME280;28495;49.916;14.536;2023-02-23T19:53:55;96418.31;;;8.47;67.83
42847;BME280;28495;49.916;14.536;2023-02-23T19:59:16;96413.63;;;8.41;67.61
42847;BME280;28495;49.916;14.536;2023-02-23T20:04:37;96406.63;;;8.41;68.16
42847;BME280;28495;49.916;14.536;2023-02-23T20:09:58;96410.66;;;8.55;68.51
42847;BME280;28495;49.916;14.536;2023-02-23T20:15:19;96404.25;;;8.59;68.14
42847;BME280;28495;49.916;14.536;2023-02-23T20:20:40;96396.44;;;8.69;68.21
42847;BME280;28495;49.916;14.536;2023-02-23T20:26:05;96389.16;;;8.43;67.66
42847;BME280;28495;49.916;14.536;2023-02-23T20:31:30;96385.31;;;8.47;68.09
42847;BME280;28495;49.916;14.536;2023-02-23T20:36:52;96390.78;;;8.44;68.11
42847;BME280;28495;49.916;14.536;2023-02-23T20:42:14;96391.09;;;8.51;68.32
42847;BME280;28495;49.916;14.536;2023-02-23T20:47:35;96385.63;;;8.54;68.72
42847;BME280;28495;49.916;14.536;2023-02-23T20:52:58;96381.66;;;8.60;68.65
42847;BME280;28495;49.916;14.536;2023-02-23T20:58:21;96373.31;;;8.56;68.69
42847;BME280;28495;49.916;14.536;2023-02-23T21:03:45;96373.81;;;8.40;68.40
42847;BME280;28495;49.916;14.536;2023-02-23T21:09:06;96371.38;;;8.38;68.35
42847;BME280;28495;49.916;14.536;2023-02-23T21:14:32;96366.03;;;8.40;68.46
42847;BME280;28495;49.916;14.536;2023-02-23T21:19:55;96360.16;;;8.28;68.31
42847;BME280;28495;49.916;14.536;2023-02-23T21:25:17;96357.81;;;8.15;68.63
42847;BME280;28495;49.916;14.536;2023-02-23T21:30:39;96348.91;;;8.18;68.75
42847;BME280;28495;49.916;14.536;2023-02-23T21:35:59;96344.00;;;8.24;68.85
42847;BME280;28495;49.916;14.536;2023-02-23T21:41:20;96346.06;;;8.21;68.75
42847;BME280;28495;49.916;14.536;2023-02-23T21:46:41;96339.63;;;8.15;68.98
42847;BME280;28495;49.916;14.536;2023-02-23T21:52:02;96341.81;;;8.20;69.15
42847;BME280;28495;49.916;14.536;2023-02-23T21:57:24;96329.94;;;8.27;69.32
42847;BME280;28495;49.916;14.536;2023-02-23T22:02:49;96334.72;;;8.32;69.42
42847;BME280;28495;49.916;14.536;2023-02-23T22:08:11;96329.53;;;8.32;69.34
42847;BME280;28495;49.916;14.536;2023-02-23T22:13:35;96327.47;;;8.16;69.09
42847;BME280;28495;49.916;14.536;2023-02-23T22:18:56;96327.88;;;8.21;69.26
42847;BME280;28495;49.916;14.536;2023-02-23T22:24:17;96333.34;;;8.28;69.33
42847;BME280;28495;49.916;14.536;2023-02-23T22:29:38;96331.84;;;8.35;69.45
42847;BME280;28495;49.916;14.536;2023-02-23T22:34:59;96328.56;;;8.43;69.37
42847;BME280;28495;49.916;14.536;2023-02-23T22:40:20;96323.53;;;8.51;69.32
42847;BME280;28495;49.916;14.536;2023-02-23T22:45:41;96310.09;;;8.46;69.43
42847;BME280;28495;49.916;14.536;2023-02-23T22:51:04;96311.06;;;8.45;69.65
42847;BME280;28495;49.916;14.536;2023-02-23T22:56:24;96306.81;;;8.44;69.61
42847;BME280;28495;49.916;14.536;2023-02-23T23:01:45;96302.59;;;8.43;69.64
42847;BME280;28495;49.916;14.536;2023-02-23T23:07:08;96299.44;;;8.59;70.20
42847;BME280;28495;49.916;14.536;2023-02-23T23:12:31;96296.97;;;8.67;69.78
42847;BME280;28495;49.916;14.536;2023-02-23T23:17:53;96293.25;;;8.69;69.44
42847;BME280;28495;49.916;14.536;2023-02-23T23:23:14;96291.38;;;8.62;69.80
42847;BME280;28495;49.916;14.536;2023-02-23T23:28:36;96288.75;;;8.72;70.07
42847;BME280;28495;49.916;14.536;2023-02-23T23:34:05;96283.69;;;8.70;69.65
42847;BME280;28495;49.916;14.536;2023-02-23T23:39:28;96272.91;;;8.65;69.41
42847;BME280;28495;49.916;14.536;2023-02-23T23:44:49;96267.66;;;8.84;69.71
42847;BME280;28495;49.916;14.536;2023-02-23T23:50:12;96264.22;;;8.84;69.72
42847;BME280;28495;49.916;14.536;2023-02-23T23:55:33;96258.63;;;8.79;69.43
